Time;durP1;ratioP1;P1;durP2;ratioP2;P2;SDS_P1;SDS_P2;PMS_P1;PMS_P2;Temp;Humidity;BMP_temperature;BMP_pressure;BME280_temperature;BME280_humidity;BME280_pressure;Samples;Min_cycle;Max_cycle;Signal;HPM_P1;HPM_P2
2023/04/13 00:00:43;;;;;;;1.88;0.20;;;8.50;99.90;;;;;;5097194;28;20091;-74
2023/04/13 00:03:15;;;;;;;5.93;0.50;;;8.50;99.90;;;;;;5096847;28;20027;-74
2023/04/13 00:05:42;;;;;;;1.55;0.20;;;8.50;99.90;;;;;;5097123;28;20024;-74
2023/04/13 00:08:07;;;;;;;4.82;0.30;;;8.40;99.90;;;;;;5097103;28;20040;-74
2023/04/13 00:10:40;;;;;;;2.92;0.15;;;8.40;99.90;;;;;;5078766;28;20028;-74
2023/04/13 00:13:07;;;;;;;3.42;0.40;;;8.40;99.90;;;;;;5096885;28;20113;-74
2023/04/13 00:15:35;;;;;;;3.33;0.30;;;8.40;99.90;;;;;;5096693;28;20063;-74
2023/04/13 00:18:02;;;;;;;2.70;0.30;;;8.40;99.90;;;;;;5078747;28;20024;-74
2023/04/13 00:20:28;;;;;;;6.00;0.30;;;8.40;99.90;;;;;;5079273;28;20032;-74
2023/04/13 00:22:55;;;;;;;2.30;0.20;;;8.30;99.90;;;;;;5078679;28;20031;-74
2023/04/13 00:25:21;;;;;;;2.90;0.30;;;8.20;99.90;;;;;;5045520;28;20496;-74
2023/04/13 00:27:49;;;;;;;1.83;0.30;;;8.20;99.90;;;;;;5079397;28;20040;-74
2023/04/13 00:30:17;;;;;;;3.30;0.20;;;8.20;99.90;;;;;;5096772;28;20032;-74
2023/04/13 00:32:44;;;;;;;2.20;0.13;;;8.20;99.90;;;;;;5061760;28;20125;-74
2023/04/13 00:35:11;;;;;;;1.67;0.20;;;8.10;99.90;;;;;;5096617;28;20027;-74
2023/04/13 00:37:37;;;;;;;2.92;0.30;;;8.10;99.90;;;;;;5096589;28;20024;-73
2023/04/13 00:40:05;;;;;;;3.00;0.30;;;8.10;99.90;;;;;;5078423;28;20024;-74
2023/04/13 00:42:32;;;;;;;1.40;0.20;;;8.10;99.90;;;;;;5078412;28;20410;-74
2023/04/13 00:44:57;;;;;;;2.05;0.28;;;8.10;99.90;;;;;;5096400;28;20036;-74
2023/04/13 00:47:26;;;;;;;1.33;0.28;;;8.10;99.90;;;;;;5078315;28;20032;-74
2023/04/13 00:49:55;;;;;;;1.67;0.20;;;8.10;99.90;;;;;;5096376;28;20023;-74
2023/04/13 00:52:21;;;;;;;4.55;0.70;;;8.10;99.90;;;;;;5078118;28;20487;-74
2023/04/13 00:54:48;;;;;;;1.67;0.30;;;8.20;99.90;;;;;;5078055;28;20063;-74
2023/04/13 00:57:18;;;;;;;1.60;0.20;;;8.20;99.90;;;;;;5096208;28;20028;-74
2023/04/13 00:59:46;;;;;;;3.88;0.20;;;8.20;99.90;;;;;;5096088;28;20073;-75
2023/04/13 01:02:12;;;;;;;2.15;0.20;;;8.20;99.90;;;;;;5096472;28;20016;-74
2023/04/13 01:04:38;;;;;;;4.43;0.52;;;8.20;99.90;;;;;;5060952;28;20046;-75
2023/04/13 01:07:10;;;;;;;3.42;0.20;;;8.10;99.90;;;;;;5096032;28;20107;-74
2023/04/13 01:09:51;;;;;;;2.85;0.30;;;8.10;99.90;;;;;;5076667;28;20020;-74
2023/04/13 01:12:25;;;;;;;3.60;0.40;;;8.00;99.90;;;;;;5077779;28;20464;-74
2023/04/13 01:15:07;;;;;;;3.92;0.40;;;8.00;99.90;;;;;;5077759;28;20054;-73
2023/04/13 01:17:35;;;;;;;6.35;0.80;;;7.90;99.90;;;;;;5096623;28;20028;-74
2023/04/13 01:20:15;;;;;;;2.35;0.30;;;8.00;99.90;;;;;;5077720;28;20021;-74
2023/04/13 01:23:03;;;;;;;3.47;0.50;;;8.00;99.90;;;;;;5077860;28;20020;-74
2023/04/13 01:25:34;;;;;;;2.67;0.30;;;8.00;99.90;;;;;;5095771;28;20066;-74
2023/04/13 01:28:04;;;;;;;2.60;0.45;;;8.10;99.90;;;;;;5095585;28;20078;-74
2023/04/13 01:30:31;;;;;;;2.58;0.40;;;8.10;99.90;;;;;;5077447;28;20020;-74
2023/04/13 01:32:58;;;;;;;1.17;0.20;;;8.00;99.90;;;;;;5060647;28;20085;-73
2023/04/13 01:35:25;;;;;;;7.25;0.88;;;8.00;99.90;;;;;;5077598;28;20495;-74
2023/04/13 01:37:51;;;;;;;3.58;0.32;;;8.10;99.90;;;;;;5061115;28;20464;-74
2023/04/13 01:40:18;;;;;;;2.25;0.30;;;8.10;99.90;;;;;;5095640;28;20077;-74
2023/04/13 01:42:44;;;;;;;2.60;0.20;;;8.00;99.90;;;;;;5044116;28;20032;-73
2023/04/13 01:45:20;;;;;;;3.33;0.35;;;8.10;99.90;;;;;;5076905;28;20042;-73
2023/04/13 01:48:07;;;;;;;3.65;1.08;;;8.10;99.90;;;;;;5076983;28;20168;-73
2023/04/13 01:50:55;;;;;;;4.43;0.43;;;8.10;99.90;;;;;;5077317;28;20119;-73
2023/04/13 01:53:27;;;;;;;4.95;0.40;;;8.10;99.90;;;;;;5094823;28;20031;-74
2023/04/13 01:55:54;;;;;;;2.92;0.30;;;8.10;99.90;;;;;;5095726;28;20079;-73
2023/04/13 01:58:22;;;;;;;2.17;0.30;;;8.10;99.90;;;;;;5076779;28;20032;-73
2023/04/13 02:00:48;;;;;;;2.78;0.20;;;8.10;99.90;;;;;;5077561;28;20077;-73
2023/04/13 02:03:15;;;;;;;3.72;0.40;;;8.10;99.90;;;;;;5076413;28;20452;-73
2023/04/13 02:05:40;;;;;;;2.63;0.30;;;8.10;99.90;;;;;;5060452;28;20028;-73
2023/04/13 02:08:07;;;;;;;3.53;0.40;;;8.10;99.90;;;;;;5077057;28;20033;-74
2023/04/13 02:10:35;;;;;;;4.05;0.38;;;8.00;99.90;;;;;;5076677;28;20472;-73
2023/04/13 02:13:02;;;;;;;2.78;0.43;;;8.10;99.90;;;;;;5095026;28;20038;-73
2023/04/13 02:15:29;;;;;;;5.63;0.70;;;8.10;99.90;;;;;;5060842;28;20040;-74
2023/04/13 02:17:55;;;;;;;3.35;0.30;;;8.10;99.90;;;;;;5076969;28;20043;-74
2023/04/13 02:20:21;;;;;;;7.07;0.60;;;8.10;99.90;;;;;;5077202;28;20055;-73
2023/04/13 02:22:46;;;;;;;4.38;0.52;;;8.10;99.90;;;;;;5076091;28;20028;-74
2023/04/13 02:25:14;;;;;;;4.95;0.68;;;8.10;99.90;;;;;;5076451;28;20486;-74
2023/04/13 02:27:40;;;;;;;1.75;0.30;;;8.10;99.90;;;;;;5076693;28;20119;-74
2023/04/13 02:30:11;;;;;;;3.38;0.50;;;8.10;99.90;;;;;;5094699;28;20119;-73
2023/04/13 02:32:39;;;;;;;2.83;0.32;;;8.10;99.90;;;;;;5094386;28;20047;-73
2023/04/13 02:35:10;;;;;;;7.85;1.38;;;8.10;99.90;;;;;;5076141;28;20032;-73
2023/04/13 02:37:38;;;;;;;5.68;0.70;;;8.10;99.90;;;;;;5094931;28;20024;-74
2023/04/13 02:40:07;;;;;;;1.60;0.20;;;8.10;99.90;;;;;;5094289;28;20020;-75
2023/04/13 02:42:33;;;;;;;4.10;0.70;;;8.10;99.90;;;;;;5076834;28;20028;-74
2023/04/13 02:44:59;;;;;;;4.25;0.55;;;8.10;99.90;;;;;;5075886;28;20092;-74
2023/04/13 02:47:25;;;;;;;3.92;0.30;;;8.20;99.90;;;;;;5059367;28;20032;-74
2023/04/13 02:49:51;;;;;;;3.53;0.63;;;8.10;99.90;;;;;;5094421;28;20031;-74
2023/04/13 02:52:16;;;;;;;3.28;0.50;;;8.20;99.90;;;;;;5076461;28;20448;-74
2023/04/13 02:54:43;;;;;;;1.70;0.20;;;8.20;99.90;;;;;;5094372;28;20056;-74
2023/04/13 02:57:17;;;;;;;3.20;0.30;;;8.20;99.90;;;;;;5093710;28;20420;-74
2023/04/13 02:59:43;;;;;;;4.40;0.60;;;8.20;99.90;;;;;;5077497;28;20028;-74
2023/04/13 03:02:09;;;;;;;4.03;0.60;;;8.20;99.90;;;;;;5075587;28;20051;-74
2023/04/13 03:04:34;;;;;;;1.83;0.40;;;8.20;99.90;;;;;;5094152;28;20028;-74
2023/04/13 03:07:03;;;;;;;3.75;0.43;;;8.10;99.90;;;;;;5075726;28;20041;-74
2023/04/13 03:09:30;;;;;;;4.15;0.45;;;8.10;99.90;;;;;;5076643;28;20073;-74
2023/04/13 03:11:55;;;;;;;1.90;0.30;;;8.10;99.90;;;;;;5094130;28;20032;-74
2023/04/13 03:14:21;;;;;;;6.38;1.00;;;8.10;99.90;;;;;;5058976;28;20034;-74
2023/04/13 03:16:48;;;;;;;2.22;0.65;;;8.10;99.90;;;;;;5058955;28;20035;-74
2023/04/13 03:19:15;;;;;;;3.13;0.35;;;8.10;99.90;;;;;;5075715;28;20491;-74
2023/04/13 03:21:43;;;;;;;2.47;0.57;;;8.10;99.90;;;;;;5059039;28;20383;-74
2023/04/13 03:24:10;;;;;;;3.90;0.45;;;8.10;99.90;;;;;;5042682;28;20032;-74
2023/04/13 03:26:36;;;;;;;3.58;0.65;;;8.10;99.90;;;;;;5059375;28;20038;-74
2023/04/13 03:29:02;;;;;;;3.80;0.35;;;8.10;99.90;;;;;;5076037;28;20028;-74
2023/04/13 03:31:28;;;;;;;1.77;0.35;;;8.10;99.90;;;;;;5075941;28;20024;-74
2023/04/13 03:33:54;;;;;;;1.38;0.30;;;8.10;99.90;;;;;;5077624;28;20035;-74
2023/04/13 03:36:19;;;;;;;3.47;0.47;;;8.10;99.90;;;;;;5062973;28;20036;-74
2023/04/13 03:38:45;;;;;;;2.40;0.40;;;8.10;99.90;;;;;;5079974;28;20036;-74
2023/04/13 03:41:11;;;;;;;1.70;0.52;;;8.10;99.90;;;;;;5097740;28;20028;-74
2023/04/13 03:43:36;;;;;;;4.55;1.02;;;8.10;99.90;;;;;;5079450;28;20430;-75
2023/04/13 03:46:02;;;;;;;4.03;0.50;;;8.10;99.90;;;;;;5062675;28;20199;-74
2023/04/13 03:48:28;;;;;;;3.35;0.60;;;8.10;99.90;;;;;;5062710;28;20494;-74
2023/04/13 03:50:55;;;;;;;4.20;0.70;;;8.10;99.90;;;;;;5079791;28;20380;-74
2023/04/13 03:53:20;;;;;;;2.88;0.40;;;8.10;99.90;;;;;;5097454;28;20102;-74
2023/04/13 03:55:46;;;;;;;4.53;0.63;;;8.10;99.90;;;;;;5097993;28;20165;-74
2023/04/13 03:58:12;;;;;;;5.38;0.50;;;8.10;99.90;;;;;;5062673;28;20141;-74
2023/04/13 04:00:38;;;;;;;3.70;0.70;;;8.10;99.90;;;;;;5097604;28;20112;-75
2023/04/13 04:03:04;;;;;;;2.45;0.80;;;8.10;99.90;;;;;;5079673;28;20048;-74
2023/04/13 04:05:29;;;;;;;3.67;0.70;;;8.00;99.90;;;;;;5096832;28;20119;-74
2023/04/13 04:07:55;;;;;;;2.47;0.52;;;8.00;99.90;;;;;;5079033;28;20465;-75
2023/04/13 04:10:21;;;;;;;2.17;0.50;;;8.00;99.90;;;;;;5096849;28;20028;-74
2023/04/13 04:12:46;;;;;;;5.32;0.77;;;8.00;99.90;;;;;;5078586;28;20032;-74
2023/04/13 04:15:12;;;;;;;4.20;0.80;;;8.00;99.90;;;;;;5078671;28;20039;-74
2023/04/13 04:17:38;;;;;;;4.47;0.57;;;8.00;99.90;;;;;;5078745;28;20123;-75
2023/04/13 04:20:05;;;;;;;4.18;0.70;;;8.00;99.90;;;;;;5096636;28;20020;-74
2023/04/13 04:22:33;;;;;;;4.78;0.57;;;7.90;99.90;;;;;;5096916;28;20165;-74
2023/04/13 04:25:00;;;;;;;5.78;0.65;;;7.90;99.90;;;;;;5079148;28;20028;-74
2023/04/13 04:27:26;;;;;;;4.35;0.70;;;8.00;99.90;;;;;;5096552;28;20387;-74
2023/04/13 04:29:57;;;;;;;5.03;0.73;;;8.00;99.90;;;;;;5078860;28;20024;-74
2023/04/13 04:32:24;;;;;;;4.10;0.68;;;7.90;99.90;;;;;;5079290;28;20472;-74
2023/04/13 04:34:52;;;;;;;3.30;0.55;;;8.00;99.90;;;;;;5096680;28;20039;-74
2023/04/13 04:37:22;;;;;;;6.20;0.60;;;7.90;99.90;;;;;;5096637;28;20051;-74
2023/04/13 04:39:47;;;;;;;3.72;0.70;;;7.90;99.90;;;;;;5079270;28;20024;-74
2023/04/13 04:42:13;;;;;;;3.97;0.60;;;8.00;99.90;;;;;;5078421;28;20032;-74
2023/04/13 04:44:39;;;;;;;4.50;0.80;;;8.00;99.90;;;;;;5078170;28;20149;-74
2023/04/13 04:47:05;;;;;;;4.50;0.60;;;8.00;99.90;;;;;;5078231;28;20063;-74
2023/04/13 04:49:32;;;;;;;5.20;0.80;;;8.00;99.90;;;;;;5078111;28;20468;-74
2023/04/13 04:51:58;;;;;;;8.00;1.10;;;8.00;99.90;;;;;;5096324;28;20032;-74
2023/04/13 04:54:24;;;;;;;7.00;1.00;;;8.00;99.90;;;;;;5078242;28;20052;-74
2023/04/13 04:56:51;;;;;;;6.25;1.20;;;8.00;99.90;;;;;;5061871;28;20036;-74
2023/04/13 04:59:18;;;;;;;7.75;1.10;;;8.00;99.90;;;;;;5078522;28;20472;-74
2023/04/13 05:01:44;;;;;;;3.63;1.15;;;7.90;99.90;;;;;;5061704;28;20414;-74
2023/04/13 05:04:10;;;;;;;7.68;1.60;;;8.00;99.90;;;;;;5096263;28;20376;-74
2023/04/13 05:06:35;;;;;;;5.43;1.40;;;7.90;99.90;;;;;;5078149;28;20043;-74
2023/04/13 05:09:05;;;;;;;5.20;1.73;;;7.90;99.90;;;;;;5077843;28;20129;-74
2023/04/13 05:11:32;;;;;;;5.75;1.85;;;7.90;99.90;;;;;;5077604;28;20123;-74
2023/04/13 05:13:57;;;;;;;5.07;1.40;;;7.90;99.90;;;;;;5078524;28;20147;-74
2023/04/13 05:16:23;;;;;;;7.80;1.65;;;7.90;99.90;;;;;;5077513;28;20392;-75
2023/04/13 05:18:49;;;;;;;3.63;1.38;;;7.90;99.90;;;;;;5077788;28;20162;-74
2023/04/13 05:21:15;;;;;;;8.70;2.60;;;8.00;99.90;;;;;;5061368;28;20476;-74
2023/04/13 05:23:42;;;;;;;7.80;3.35;;;8.00;99.90;;;;;;5078176;28;20039;-74
2023/04/13 05:26:11;;;;;;;9.18;3.00;;;8.00;99.90;;;;;;5095571;28;20163;-75
2023/04/13 05:28:38;;;;;;;9.73;3.38;;;7.90;99.90;;;;;;5095639;28;20061;-74
2023/04/13 05:31:06;;;;;;;7.85;3.20;;;8.00;99.90;;;;;;5060416;28;20028;-74
2023/04/13 05:33:35;;;;;;;13.95;4.25;;;8.00;99.90;;;;;;5095419;28;20077;-74
2023/04/13 05:36:02;;;;;;;11.18;3.90;;;8.00;99.90;;;;;;5061289;28;20039;-74
2023/04/13 05:38:27;;;;;;;11.60;4.50;;;8.00;99.90;;;;;;5060544;28;20046;-75
2023/04/13 05:40:53;;;;;;;15.80;5.05;;;8.00;99.90;;;;;;5077374;28;20410;-74
2023/04/13 05:43:20;;;;;;;10.13;4.22;;;8.10;99.90;;;;;;5060356;28;20028;-77
2023/04/13 05:45:46;;;;;;;10.68;5.00;;;8.10;99.90;;;;;;5096582;28;20028;-75
2023/04/13 05:48:12;;;;;;;10.90;4.47;;;8.20;99.90;;;;;;5059887;28;20032;-78
2023/04/13 05:50:37;;;;;;;11.82;4.40;;;8.20;99.90;;;;;;5077687;28;20031;-81
2023/04/13 05:53:06;;;;;;;10.45;4.53;;;8.20;99.90;;;;;;5061142;28;20123;-79
2023/04/13 05:55:32;;;;;;;10.65;4.18;;;8.20;99.90;;;;;;5094325;28;20074;-80
2023/04/13 05:58:02;;;;;;;12.98;4.47;;;8.30;99.90;;;;;;5077161;28;20053;-76
2023/04/13 06:00:28;;;;;;;10.88;4.43;;;8.40;99.90;;;;;;5062208;28;20040;-78
2023/04/13 06:02:54;;;;;;;13.05;4.60;;;8.40;99.90;;;;;;5094688;28;20524;-81
2023/04/13 06:05:21;;;;;;;11.35;4.22;;;8.30;99.90;;;;;;5076969;28;20055;-79
2023/04/13 06:07:46;;;;;;;10.77;3.90;;;8.30;99.90;;;;;;5094571;28;20081;-74
2023/04/13 06:10:15;;;;;;;12.68;3.80;;;8.40;99.90;;;;;;5059508;28;20028;-74
2023/04/13 06:12:42;;;;;;;12.65;3.83;;;8.40;99.90;;;;;;5076865;28;20030;-74
2023/04/13 06:15:08;;;;;;;12.32;3.97;;;8.40;99.90;;;;;;5094861;28;20032;-74
2023/04/13 06:17:34;;;;;;;12.35;4.38;;;8.40;99.90;;;;;;5076979;28;20371;-73
2023/04/13 06:20:00;;;;;;;11.65;3.95;;;8.40;99.90;;;;;;5075894;28;20119;-74
2023/04/13 06:22:26;;;;;;;13.63;4.57;;;8.30;99.90;;;;;;5094675;28;20055;-73
2023/04/13 06:24:52;;;;;;;10.32;4.18;;;8.30;99.90;;;;;;5059533;28;20071;-75
2023/04/13 06:27:18;;;;;;;12.57;4.13;;;8.30;99.90;;;;;;5094657;28;20044;-73
2023/04/13 06:29:44;;;;;;;12.13;4.68;;;8.30;99.90;;;;;;5059232;28;20035;-74
2023/04/13 06:32:11;;;;;;;10.95;4.47;;;8.30;99.90;;;;;;5094219;28;20051;-74
2023/04/13 06:34:37;;;;;;;11.68;4.20;;;8.30;99.90;;;;;;5076607;28;20031;-74
2023/04/13 06:37:03;;;;;;;10.70;5.05;;;8.30;99.90;;;;;;5093936;28;20384;-74
2023/04/13 06:39:30;;;;;;;8.52;4.90;;;8.30;99.90;;;;;;5094323;28;20032;-74
2023/04/13 06:41:56;;;;;;;11.45;4.50;;;8.30;99.90;;;;;;5094145;28;20040;-74
2023/04/13 06:44:23;;;;;;;9.63;3.38;;;8.30;99.90;;;;;;5094073;28;20111;-74
2023/04/13 06:46:48;;;;;;;6.78;3.28;;;8.20;99.90;;;;;;5094048;28;20476;-74
2023/04/13 06:49:14;;;;;;;6.10;2.50;;;8.20;99.90;;;;;;5075869;28;20028;-73
2023/04/13 06:51:40;;;;;;;5.35;1.88;;;8.20;99.90;;;;;;5094026;28;20035;-74
2023/04/13 06:54:06;;;;;;;7.20;1.90;;;8.20;99.90;;;;;;5093742;28;20103;-74
2023/04/13 06:56:31;;;;;;;9.18;1.92;;;8.20;99.90;;;;;;5076364;28;20474;-74
2023/04/13 06:59:00;;;;;;;5.10;2.03;;;8.20;99.90;;;;;;5059054;28;20035;-75
2023/04/13 07:01:26;;;;;;;5.25;2.50;;;8.20;99.90;;;;;;5094095;28;20103;-73
2023/04/13 07:03:52;;;;;;;6.18;2.60;;;8.20;99.90;;;;;;5059186;28;20032;-74
2023/04/13 07:06:20;;;;;;;8.02;3.38;;;8.20;99.90;;;;;;5075754;28;20434;-74
2023/04/13 07:08:46;;;;;;;5.95;2.72;;;8.20;99.90;;;;;;5075469;28;20050;-74
2023/04/13 07:11:12;;;;;;;10.05;3.03;;;8.20;99.90;;;;;;5075720;28;20111;-73
2023/04/13 07:13:38;;;;;;;5.82;2.22;;;8.20;99.90;;;;;;5076029;28;20038;-74
2023/04/13 07:16:04;;;;;;;4.07;2.13;;;8.30;99.90;;;;;;5093531;28;20028;-73
2023/04/13 07:18:30;;;;;;;5.13;1.90;;;8.20;99.90;;;;;;5093302;28;20095;-73
2023/04/13 07:20:56;;;;;;;4.18;1.70;;;8.20;99.90;;;;;;5058978;28;20035;-74
2023/04/13 07:23:22;;;;;;;4.63;1.63;;;8.20;99.90;;;;;;5093208;28;20028;-74
2023/04/13 07:25:47;;;;;;;5.78;2.03;;;8.20;99.90;;;;;;5093149;28;20031;-74
2023/04/13 07:28:13;;;;;;;4.00;1.80;;;8.30;99.90;;;;;;5093178;28;20032;-74
2023/04/13 07:30:45;;;;;;;4.43;1.90;;;8.20;99.90;;;;;;5075594;28;20420;-75
2023/04/13 07:33:11;;;;;;;8.20;2.30;;;8.20;99.90;;;;;;5093306;28;20028;-74
2023/04/13 07:35:38;;;;;;;6.68;2.28;;;8.20;99.90;;;;;;5076040;28;20139;-77
2023/04/13 07:38:04;;;;;;;7.07;2.03;;;8.20;99.90;;;;;;5093686;28;20043;-77
2023/04/13 07:40:30;;;;;;;5.68;1.42;;;8.20;99.90;;;;;;5093207;28;20024;-77
2023/04/13 07:42:55;;;;;;;4.72;1.70;;;8.30;99.90;;;;;;5075645;28;20475;-77
2023/04/13 07:45:21;;;;;;;6.38;1.90;;;8.30;99.90;;;;;;5058411;28;20033;-77
2023/04/13 07:47:47;;;;;;;7.25;2.08;;;8.40;99.90;;;;;;5042585;28;20093;-77
2023/04/13 07:50:14;;;;;;;7.45;2.60;;;8.40;99.90;;;;;;5093469;28;20460;-77
2023/04/13 07:52:40;;;;;;;6.97;1.80;;;8.50;99.90;;;;;;5075854;28;20039;-77
2023/04/13 07:55:07;;;;;;;7.35;2.03;;;8.50;99.90;;;;;;5075193;28;20060;-76
2023/04/13 07:57:32;;;;;;;6.43;2.17;;;8.50;99.90;;;;;;5093931;28;20031;-75
2023/04/13 07:59:58;;;;;;;4.07;1.70;;;8.50;99.90;;;;;;5075292;28;20032;-76
2023/04/13 08:02:24;;;;;;;11.57;2.05;;;8.50;99.90;;;;;;5075959;28;20032;-76
2023/04/13 08:04:51;;;;;;;9.18;2.65;;;8.60;99.90;;;;;;5075101;28;20085;-76
2023/04/13 08:07:17;;;;;;;10.05;3.15;;;8.70;99.90;;;;;;5093389;28;20036;-75
2023/04/13 08:09:47;;;;;;;9.02;2.28;;;8.80;99.90;;;;;;5058436;28;20048;-75
2023/04/13 08:12:13;;;;;;;12.10;2.58;;;8.80;99.90;;;;;;5058841;28;20460;-75
2023/04/13 08:14:38;;;;;;;12.52;2.88;;;8.90;99.90;;;;;;5092906;28;20035;-76
2023/04/13 08:17:04;;;;;;;10.68;2.72;;;8.90;99.90;;;;;;5093198;28;20025;-75
2023/04/13 08:19:31;;;;;;;12.57;2.72;;;8.90;99.90;;;;;;5076432;28;20052;-76
2023/04/13 08:21:57;;;;;;;12.50;2.72;;;8.90;99.90;;;;;;5078639;28;20024;-76
2023/04/13 08:24:25;;;;;;;11.93;2.20;;;9.00;99.90;;;;;;5061963;28;20028;-75
2023/04/13 08:26:54;;;;;;;10.85;2.05;;;8.90;99.90;;;;;;5078860;28;20468;-76
2023/04/13 08:29:23;;;;;;;12.18;2.30;;;9.00;99.90;;;;;;5079172;28;20062;-76
2023/04/13 08:31:49;;;;;;;14.02;2.50;;;9.10;99.90;;;;;;5078559;28;20027;-76
2023/04/13 08:34:16;;;;;;;13.38;2.05;;;9.10;99.90;;;;;;5096912;28;20048;-77
2023/04/13 08:36:44;;;;;;;12.70;2.70;;;9.10;99.90;;;;;;5061662;28;20028;-76
2023/04/13 08:39:11;;;;;;;14.00;2.88;;;9.10;99.90;;;;;;5078537;28;20039;-76
2023/04/13 08:41:37;;;;;;;11.55;2.50;;;9.20;99.90;;;;;;5078276;28;20078;-76
2023/04/13 08:44:07;;;;;;;14.32;2.72;;;9.10;99.90;;;;;;5077887;28;20032;-75
2023/04/13 08:46:33;;;;;;;9.60;2.08;;;9.10;99.90;;;;;;5078167;28;20096;-75
2023/04/13 08:49:00;;;;;;;15.52;2.40;;;9.20;99.90;;;;;;5061983;28;20477;-76
2023/04/13 08:51:30;;;;;;;10.45;2.10;;;9.20;99.90;;;;;;5077950;28;20048;-75
2023/04/13 08:53:55;;;;;;;12.27;2.20;;;9.20;99.90;;;;;;5096413;28;20107;-76
2023/04/13 08:56:22;;;;;;;12.50;2.08;;;9.30;99.90;;;;;;5078134;28;20134;-76
2023/04/13 08:58:51;;;;;;;14.73;3.20;;;9.40;99.90;;;;;;5078534;28;20036;-76
2023/04/13 09:01:19;;;;;;;15.35;2.53;;;9.40;99.90;;;;;;5078077;28;20051;-76
2023/04/13 09:03:59;;;;;;;16.38;2.80;;;9.40;99.90;;;;;;5078224;28;20058;-75
2023/04/13 09:06:33;;;;;;;12.73;1.92;;;9.50;99.90;;;;;;5100755;28;20097;-78
2023/04/13 09:09:02;;;;;;;15.52;2.08;;;9.50;99.90;;;;;;5078516;28;20028;-77
2023/04/13 09:11:27;;;;;;;17.92;2.17;;;9.60;99.90;;;;;;5095957;28;20028;-77
2023/04/13 09:13:53;;;;;;;14.60;2.60;;;9.60;99.90;;;;;;5096332;28;20111;-77
2023/04/13 09:16:19;;;;;;;9.90;1.50;;;9.60;99.90;;;;;;5061479;28;20078;-76
2023/04/13 09:18:55;;;;;;;15.05;1.73;;;9.60;99.90;;;;;;5077648;28;20031;-77
2023/04/13 09:21:22;;;;;;;12.02;2.00;;;9.70;99.90;;;;;;5077558;28;20449;-78
2023/04/13 09:23:55;;;;;;;13.52;1.80;;;9.70;99.90;;;;;;5077061;28;20028;-78
2023/04/13 09:26:21;;;;;;;12.70;1.60;;;9.70;99.90;;;;;;5077444;28;20040;-79
2023/04/13 09:28:49;;;;;;;10.05;1.35;;;9.80;99.90;;;;;;5060959;28;20028;-76
2023/04/13 09:31:15;;;;;;;9.95;1.70;;;9.80;99.90;;;;;;5076380;28;20138;-77
2023/04/13 09:33:48;;;;;;;15.45;1.90;;;9.80;99.90;;;;;;5095564;28;20028;-77
2023/04/13 09:36:16;;;;;;;17.05;2.13;;;9.70;99.90;;;;;;5095492;28;20046;-77
2023/04/13 09:38:46;;;;;;;12.25;1.50;;;9.60;99.90;;;;;;5077473;28;20024;-77
2023/04/13 09:41:12;;;;;;;15.73;2.20;;;9.60;99.90;;;;;;5061557;28;20393;-77
2023/04/13 09:43:38;;;;;;;12.90;1.40;;;9.70;99.90;;;;;;5060985;28;20066;-77
2023/04/13 09:46:11;;;;;;;12.63;1.45;;;9.70;99.90;;;;;;5060620;28;20492;-77
2023/04/13 09:48:37;;;;;;;12.15;1.25;;;9.70;99.90;;;;;;5077405;28;20032;-77
2023/04/13 09:51:05;;;;;;;13.07;1.58;;;9.80;99.90;;;;;;5095568;28;20067;-80
2023/04/13 09:53:48;;;;;;;10.63;1.27;;;9.70;99.90;;;;;;5094998;28;20066;-76
2023/04/13 09:56:14;;;;;;;9.45;1.20;;;9.80;99.90;;;;;;5095264;28;20096;-75
2023/04/13 09:58:42;;;;;;;14.73;1.55;;;9.80;99.90;;;;;;5076574;28;20092;-76
2023/04/13 10:01:08;;;;;;;11.23;1.35;;;9.90;99.90;;;;;;5076503;28;20111;-78
2023/04/13 10:03:36;;;;;;;11.93;1.08;;;9.90;99.90;;;;;;5059534;28;20035;-77
2023/04/13 10:06:09;;;;;;;13.02;1.88;;;10.10;99.90;;;;;;5094011;28;20168;-76
2023/04/13 10:08:41;;;;;;;11.73;1.50;;;10.30;99.90;;;;;;5094802;28;20028;-77
2023/04/13 10:11:13;;;;;;;12.52;1.42;;;10.30;99.90;;;;;;5094723;28;20594;-77
2023/04/13 10:13:59;;;;;;;17.60;1.95;;;10.40;99.90;;;;;;5076422;28;20035;-78
2023/04/13 10:16:31;;;;;;;9.35;0.85;;;10.70;99.90;;;;;;5077058;28;20090;-77
2023/04/13 10:19:00;;;;;;;10.43;1.60;;;10.70;99.90;;;;;;5077198;28;20369;-76
2023/04/13 10:21:38;;;;;;;14.02;1.70;;;10.90;99.90;;;;;;5076027;28;20059;-77
2023/04/13 10:24:06;;;;;;;11.38;1.25;;;11.00;99.90;;;;;;5094632;28;20027;-78
2023/04/13 10:26:33;;;;;;;10.55;1.20;;;11.00;99.90;;;;;;5094285;28;20376;-77
2023/04/13 10:29:00;;;;;;;13.75;1.63;;;11.00;99.90;;;;;;5075914;28;20032;-77
2023/04/13 10:31:46;;;;;;;12.18;2.42;;;11.00;99.90;;;;;;5059666;28;20024;-77
2023/04/13 10:34:26;;;;;;;15.45;0.90;;;11.00;99.90;;;;;;5094564;28;20473;-77
2023/04/13 10:36:54;;;;;;;11.02;1.30;;;11.10;99.90;;;;;;5094313;28;20024;-77
2023/04/13 10:39:31;;;;;;;10.38;1.15;;;11.00;99.90;;;;;;5059058;28;20031;-78
2023/04/13 10:42:07;;;;;;;10.45;1.23;;;11.00;99.90;;;;;;5076163;28;20082;-77
2023/04/13 10:44:40;;;;;;;16.02;1.40;;;11.00;99.90;;;;;;5093834;28;20031;-77
2023/04/13 10:47:07;;;;;;;12.63;1.48;;;11.00;99.90;;;;;;5076680;28;20111;-76
2023/04/13 10:49:33;;;;;;;12.57;1.35;;;10.80;99.90;;;;;;5075949;28;20039;-77
2023/04/13 10:51:59;;;;;;;10.05;1.77;;;10.80;99.90;;;;;;5094005;28;20028;-77
2023/04/13 10:54:26;;;;;;;11.63;1.25;;;10.70;99.90;;;;;;5093808;28;20039;-76
2023/04/13 10:57:05;;;;;;;13.20;1.70;;;10.60;99.90;;;;;;5075662;28;20020;-77
2023/04/13 10:59:37;;;;;;;13.05;1.40;;;10.70;99.90;;;;;;5059465;28;20024;-77
2023/04/13 11:02:14;;;;;;;10.25;1.23;;;10.80;99.90;;;;;;5075901;28;20024;-77
2023/04/13 11:04:42;;;;;;;9.88;1.40;;;11.00;99.90;;;;;;5093884;28;20035;-78
2023/04/13 11:07:18;;;;;;;14.90;1.90;;;11.00;99.90;;;;;;5075713;28;20113;-77
2023/04/13 11:09:51;;;;;;;10.43;1.08;;;10.80;99.90;;;;;;5094325;28;20024;-77
2023/04/13 11:12:18;;;;;;;14.80;0.98;;;10.80;99.90;;;;;;5094083;28;20076;-77
2023/04/13 11:14:48;;;;;;;7.55;1.08;;;10.90;99.90;;;;;;5075778;28;20028;-77
2023/04/13 11:17:19;;;;;;;11.30;1.63;;;11.10;99.90;;;;;;5075527;28;20024;-77
2023/04/13 11:19:49;;;;;;;10.35;1.52;;;11.40;99.90;;;;;;5093588;28;20068;-77
2023/04/13 11:22:18;;;;;;;9.73;1.15;;;11.60;99.90;;;;;;5093448;28;20114;-78
2023/04/13 11:24:45;;;;;;;11.38;1.85;;;11.70;99.90;;;;;;5059203;28;20480;-77
2023/04/13 11:27:22;;;;;;;12.25;0.98;;;11.70;99.90;;;;;;5075481;28;20028;-77
2023/04/13 11:30:05;;;;;;;8.65;0.95;;;11.80;99.90;;;;;;5093909;28;20027;-77
2023/04/13 11:32:32;;;;;;;;;;;11.90;99.90;;;;;;5094034;28;20081;-77
2023/04/13 11:35:13;;;;;;;9.98;1.30;;;11.90;99.90;;;;;;5075328;28;19908;-77
2023/04/13 11:37:43;;;;;;;11.30;1.60;;;11.90;99.90;;;;;;5075007;28;20028;-79
2023/04/13 11:40:16;;;;;;;10.75;1.67;;;12.00;99.90;;;;;;5076721;28;20024;-78
2023/04/13 11:42:46;;;;;;;;;;;12.10;99.90;;;;;;5094175;28;20027;-78
2023/04/13 11:45:16;;;;;;;10.10;1.40;;;12.10;99.00;;;;;;5075173;28;19957;-78
2023/04/13 11:47:42;;;;;;;12.13;1.10;;;12.00;99.00;;;;;;5058396;28;20024;-78
2023/04/13 11:50:09;;;;;;;7.20;1.02;;;12.10;99.40;;;;;;5075773;28;20035;-78
2023/04/13 11:52:36;;;;;;;11.93;1.40;;;12.20;98.90;;;;;;5075781;28;20043;-77
2023/04/13 11:55:03;;;;;;;9.32;1.25;;;12.30;98.20;;;;;;5077221;28;20055;-77
2023/04/13 11:57:31;;;;;;;18.08;1.40;;;12.40;98.70;;;;;;5062447;28;20052;-77
2023/04/13 11:59:57;;;;;;;8.38;1.35;;;12.50;98.50;;;;;;5096867;28;20379;-77
2023/04/13 12:02:25;;;;;;;7.57;1.23;;;12.40;96.50;;;;;;5062500;28;20024;-78
2023/04/13 12:04:51;;;;;;;6.75;0.90;;;12.20;96.80;;;;;;5079215;28;20035;-77
2023/04/13 12:07:18;;;;;;;8.80;1.40;;;12.30;97.90;;;;;;5045825;28;20028;-77
2023/04/13 12:09:44;;;;;;;10.60;1.38;;;12.40;97.80;;;;;;5062397;28;20028;-77
2023/04/13 12:12:23;;;;;;;9.65;1.65;;;12.40;96.60;;;;;;5078422;28;20047;-78
2023/04/13 12:14:59;;;;;;;10.75;1.70;;;12.60;95.60;;;;;;5079675;28;20117;-77
2023/04/13 12:17:32;;;;;;;10.05;1.33;;;12.60;96.20;;;;;;5078775;28;20032;-78
2023/04/13 12:19:58;;;;;;;7.78;0.90;;;12.60;96.30;;;;;;5078945;28;20038;-78
2023/04/13 12:22:40;;;;;;;9.57;1.00;;;12.60;95.50;;;;;;5078632;28;20165;-77
2023/04/13 12:25:20;;;;;;;7.35;0.98;;;12.70;95.90;;;;;;5078412;28;20036;-77
2023/04/13 12:27:48;;;;;;;11.73;1.52;;;12.80;95.90;;;;;;5078783;28;20028;-78
2023/04/13 12:30:15;;;;;;;9.88;1.38;;;12.80;94.60;;;;;;5079276;28;20032;-78
2023/04/13 12:32:46;;;;;;;8.15;1.10;;;12.80;95.20;;;;;;5096621;28;20077;-78
2023/04/13 12:35:13;;;;;;;12.13;1.48;;;12.80;94.70;;;;;;5078478;28;20039;-79
2023/04/13 12:37:40;;;;;;;10.10;1.20;;;12.80;95.20;;;;;;5096909;28;20480;-79
2023/04/13 12:40:11;;;;;;;8.73;0.95;;;12.70;94.00;;;;;;5096586;28;20439;-78
2023/04/13 12:42:38;;;;;;;9.93;0.90;;;12.70;93.60;;;;;;5096800;28;20032;-78
2023/04/13 12:45:04;;;;;;;9.90;1.25;;;12.70;94.20;;;;;;5079054;28;20032;-79
2023/04/13 12:47:30;;;;;;;6.40;0.90;;;12.90;94.50;;;;;;5078277;28;20028;-78
2023/04/13 12:49:55;;;;;;;10.75;1.27;;;12.80;93.90;;;;;;5078237;28;20448;-76
2023/04/13 12:52:21;;;;;;;12.02;1.35;;;12.80;93.20;;;;;;5078278;28;20468;-76
2023/04/13 12:54:46;;;;;;;10.98;1.10;;;12.90;93.60;;;;;;5096187;28;20070;-77